Time;durP1;ratioP1;P1;durP2;ratioP2;P2;SDS_P1;SDS_P2;PMS_P1;PMS_P2;Temp;Humidity;BMP_temperature;BMP_pressure;BME280_temperature;BME280_humidity;BME280_pressure;Samples;Min_cycle;Max_cycle;Signal;HPM_P1;HPM_P2
2022/06/01 00:01:18;;;;;;;27.40;19.83;;;;;;;7.64;100.00;101236.84;5013313;28;20049;-85
2022/06/01 00:03:44;;;;;;;28.58;20.25;;;;;;;7.67;100.00;101236.38;5031619;28;20499;-85
2022/06/01 00:06:11;;;;;;;29.30;21.05;;;;;;;7.72;100.00;101233.03;5029722;28;20540;-84
2022/06/01 00:08:36;;;;;;;32.20;21.40;;;;;;;7.72;100.00;101239.19;5023782;28;20029;-84
2022/06/01 00:11:07;;;;;;;30.10;21.60;;;;;;;7.75;100.00;101242.44;5031217;28;20040;-84
2022/06/01 00:13:32;;;;;;;28.90;20.48;;;;;;;7.69;100.00;101246.84;5023945;28;20029;-84
2022/06/01 00:15:58;;;;;;;28.53;20.40;;;;;;;7.61;100.00;101239.97;5016170;28;20029;-83
2022/06/01 00:18:23;;;;;;;27.48;19.75;;;;;;;7.58;100.00;101248.44;5021263;28;20503;-83
2022/06/01 00:20:49;;;;;;;27.33;19.03;;;;;;;7.52;100.00;101239.47;5030945;28;20052;-83
2022/06/01 00:23:15;;;;;;;26.80;19.73;;;;;;;7.49;100.00;101252.44;5024278;28;20026;-83
2022/06/01 00:25:41;;;;;;;27.50;19.83;;;;;;;7.42;100.00;101241.88;5031347;28;20079;-83
2022/06/01 00:28:16;;;;;;;26.80;20.05;;;;;;;7.34;100.00;101240.34;5031247;28;20120;-83
2022/06/01 00:30:41;;;;;;;29.83;20.65;;;;;;;7.42;100.00;101240.03;5020973;28;20040;-84
2022/06/01 00:33:07;;;;;;;30.57;20.77;;;;;;;7.48;100.00;101248.19;5030858;28;20025;-84
2022/06/01 00:35:33;;;;;;;33.72;22.02;;;;;;;7.53;100.00;101240.28;5030783;28;20021;-84
2022/06/01 00:37:58;;;;;;;34.37;21.67;;;;;;;7.65;100.00;101249.16;5031021;28;20473;-84
2022/06/01 00:40:26;;;;;;;31.27;22.25;;;;;;;7.72;100.00;101241.84;5031542;28;20028;-85
2022/06/01 00:42:53;;;;;;;35.07;23.10;;;;;;;7.82;100.00;101245.84;5012829;28;20459;-84
2022/06/01 00:45:22;;;;;;;33.03;22.63;;;;;;;7.84;100.00;101238.41;5031894;28;20026;-85
2022/06/01 00:47:48;;;;;;;33.42;23.00;;;;;;;7.88;100.00;101242.22;5012057;28;20037;-84
2022/06/01 00:50:36;;;;;;;37.55;24.25;;;;;;;7.87;100.00;101240.59;5030876;28;20032;-84
2022/06/01 00:53:06;;;;;;;33.03;22.38;;;;;;;7.86;100.00;101245.13;5029111;28;20021;-84
2022/06/01 00:55:37;;;;;;;33.10;22.73;;;;;;;7.79;100.00;101238.28;5026918;28;20029;-84
2022/06/01 00:58:10;;;;;;;34.00;23.15;;;;;;;7.76;100.00;101239.53;5023194;28;20118;-84
2022/06/01 01:00:38;;;;;;;36.40;24.38;;;;;;;7.69;100.00;101239.63;5030697;28;20039;-84
2022/06/01 01:03:06;;;;;;;39.20;27.13;;;;;;;7.66;100.00;101244.63;5030517;28;20025;-84
2022/06/01 01:05:33;;;;;;;38.63;25.93;;;;;;;7.64;100.00;101238.69;5029203;28;20030;-85
2022/06/01 01:08:02;;;;;;;48.00;31.77;;;;;;;7.63;100.00;101240.56;5030370;28;20815;-84
2022/06/01 01:10:28;;;;;;;48.58;32.47;;;;;;;7.67;100.00;101247.03;5030073;28;20067;-84
2022/06/01 01:13:04;;;;;;;48.13;30.92;;;;;;;7.65;100.00;101243.81;5030349;28;20099;-84
2022/06/01 01:15:38;;;;;;;49.17;32.43;;;;;;;7.66;100.00;101244.63;5023099;28;20037;-84
2022/06/01 01:18:10;;;;;;;52.03;33.80;;;;;;;7.69;100.00;101239.63;5029844;28;20939;-84
2022/06/01 01:21:02;;;;;;;48.55;32.25;;;;;;;7.70;100.00;101230.59;5027959;28;20028;-84
2022/06/01 01:23:38;;;;;;;49.65;31.95;;;;;;;7.68;100.00;101237.22;5028744;28;20037;-84
2022/06/01 01:26:05;;;;;;;47.85;31.90;;;;;;;7.72;100.00;101233.84;5029900;28;20070;-84
2022/06/01 01:28:32;;;;;;;50.40;32.35;;;;;;;7.72;100.00;101227.72;5022968;28;20034;-85
2022/06/01 01:31:04;;;;;;;51.47;32.40;;;;;;;7.80;100.00;101227.38;5026609;28;20025;-84
2022/06/01 01:33:30;;;;;;;54.75;34.28;;;;;;;7.85;100.00;101232.84;5020904;28;20032;-84
2022/06/01 01:36:05;;;;;;;50.45;32.63;;;;;;;7.89;100.00;101222.50;5029502;28;20021;-83
2022/06/01 01:38:34;;;;;;;53.87;34.43;;;;;;;7.89;100.00;101222.50;5029991;28;20144;-84
2022/06/01 01:41:10;;;;;;;50.37;33.13;;;;;;;7.86;100.00;101229.13;5028035;28;20362;-84
2022/06/01 01:43:57;;;;;;;48.78;31.23;;;;;;;7.77;100.00;101229.69;5028557;28;20033;-84
2022/06/01 01:46:23;;;;;;;45.63;30.48;;;;;;;7.64;100.00;101228.84;5026884;28;20506;-84
2022/06/01 01:48:49;;;;;;;45.72;29.73;;;;;;;7.60;100.00;101233.00;5015719;28;20033;-84
2022/06/01 01:51:20;;;;;;;49.90;32.27;;;;;;;7.59;100.00;101228.72;5012048;28;20042;-84
2022/06/01 01:53:45;;;;;;;51.30;31.33;;;;;;;7.63;100.00;101229.91;5027710;28;20330;-84
2022/06/01 01:56:16;;;;;;;51.22;31.88;;;;;;;7.70;100.00;101235.13;5027556;28;20026;-84
2022/06/01 01:59:01;;;;;;;51.77;32.20;;;;;;;7.79;100.00;101239.06;5029598;28;20199;-84
2022/06/01 02:01:49;;;;;;;49.80;30.13;;;;;;;7.84;100.00;101230.41;5029417;28;20682;-84
2022/06/01 02:07:31;;;;;;;47.65;29.52;;;;;;;7.91;100.00;101236.44;5010255;28;20103;-84
2022/06/01 02:12:42;;;;;;;47.10;28.90;;;;;;;7.97;100.00;101246.19;5026417;28;20413;-84
2022/06/01 02:15:11;;;;;;;48.00;30.57;;;;;;;8.00;100.00;101247.59;5029983;28;20030;-84
2022/06/01 02:17:49;;;;;;;47.40;29.58;;;;;;;7.96;100.00;101243.75;5025450;28;20026;-84
2022/06/01 02:20:33;;;;;;;45.40;29.50;;;;;;;7.91;100.00;101240.97;5027352;28;20040;-84
2022/06/01 02:23:00;;;;;;;51.28;29.88;;;;;;;7.81;100.00;101245.00;5021821;28;20381;-84
2022/06/01 02:25:25;;;;;;;44.85;28.42;;;;;;;7.73;100.00;101243.47;5027343;28;20029;-84
2022/06/01 02:27:54;;;;;;;41.10;27.05;;;;;;;7.64;100.00;101236.84;5029247;28;20033;-84
2022/06/01 02:30:33;;;;;;;41.90;27.90;;;;;;;7.54;100.00;101242.75;5028560;28;20036;-84
2022/06/01 02:33:00;;;;;;;44.50;27.33;;;;;;;7.48;100.00;101243.63;5026187;28;20776;-84
2022/06/01 02:35:29;;;;;;;43.33;27.02;;;;;;;7.42;100.00;101240.03;5028627;28;20033;-84
2022/06/01 02:37:57;;;;;;;48.42;28.90;;;;;;;7.39;100.00;101243.16;5028568;28;20109;-84
2022/06/01 02:40:25;;;;;;;48.42;29.77;;;;;;;7.45;100.00;101235.28;5029301;28;20025;-84
2022/06/01 02:42:52;;;;;;;48.30;30.23;;;;;;;7.44;100.00;101242.47;5029363;28;20026;-84
2022/06/01 02:45:23;;;;;;;49.53;29.33;;;;;;;7.37;100.00;101231.88;5028597;28;20080;-84
2022/06/01 02:47:52;;;;;;;52.58;29.73;;;;;;;7.36;100.00;101240.94;5011707;28;20038;-84
2022/06/01 02:50:21;;;;;;;48.13;30.27;;;;;;;7.32;100.00;101239.75;5009470;28;20038;-84
2022/06/01 02:52:47;;;;;;;54.13;31.85;;;;;;;7.27;100.00;101235.09;5019888;28;20014;-84
2022/06/01 02:55:14;;;;;;;58.00;32.80;;;;;;;7.35;100.00;101238.50;5026656;28;20103;-84
2022/06/01 02:57:42;;;;;;;54.63;32.53;;;;;;;7.31;100.00;101227.44;5028324;28;20029;-84
2022/06/01 03:00:17;;;;;;;55.35;30.48;;;;;;;7.26;100.00;101238.00;5026208;28;20026;-84
2022/06/01 03:02:43;;;;;;;50.30;29.67;;;;;;;7.20;100.00;101236.22;5028921;28;20095;-84
2022/06/01 03:05:08;;;;;;;51.33;29.58;;;;;;;7.15;100.00;101233.41;5025103;28;20021;-85
2022/06/01 03:07:33;;;;;;;46.13;27.83;;;;;;;7.05;100.00;101232.09;5027485;28;20115;-85
2022/06/01 03:09:58;;;;;;;50.07;28.50;;;;;;;7.01;100.00;101238.13;5029434;28;20029;-85
2022/06/01 03:12:24;;;;;;;49.63;27.93;;;;;;;7.00;100.00;101237.28;5028524;28;20030;-84
2022/06/01 03:14:49;;;;;;;48.80;27.57;;;;;;;6.94;100.00;101230.16;5028398;28;20029;-85
2022/06/01 03:17:15;;;;;;;51.60;29.30;;;;;;;6.97;100.00;101238.56;5022560;28;20037;-84
2022/06/01 03:19:40;;;;;;;54.78;29.30;;;;;;;6.97;100.00;101233.22;5012267;28;20041;-88
2022/06/01 03:22:05;;;;;;;50.37;29.00;;;;;;;6.95;100.00;101234.47;5019320;28;20436;-87
2022/06/01 03:24:33;;;;;;;51.40;28.87;;;;;;;6.94;100.00;101235.50;5028331;28;20076;-86
2022/06/01 03:26:58;;;;;;;46.78;27.25;;;;;;;6.89;100.00;101232.72;5035813;28;20061;-86
2022/06/01 03:29:24;;;;;;;52.07;27.13;;;;;;;6.85;100.00;101228.84;5023895;28;20064;-86
2022/06/01 03:31:52;;;;;;;49.25;28.85;;;;;;;6.88;100.00;101228.41;5032531;28;20033;-87
2022/06/01 03:34:19;;;;;;;48.13;28.00;;;;;;;6.85;100.00;101224.34;5033749;28;20480;-85
2022/06/01 03:36:45;;;;;;;52.33;27.27;;;;;;;6.79;100.00;101220.72;5029210;22;20574;-84
2022/06/01 03:39:10;;;;;;;54.13;29.53;;;;;;;6.88;100.00;101231.09;5011998;28;20065;-86
2022/06/01 03:41:35;;;;;;;48.40;26.77;;;;;;;6.87;100.00;101237.44;5013823;28;20045;-85
2022/06/01 03:46:45;;;;;;;49.35;25.55;;;;;;;6.87;100.00;101232.13;5014170;28;20036;-86
2022/06/01 03:49:10;;;;;;;46.40;26.07;;;;;;;6.88;100.00;101242.53;5011685;28;20105;-84
2022/06/01 03:51:36;;;;;;;45.15;24.17;;;;;;;6.81;100.00;101237.28;5007627;28;20029;-84
2022/06/01 03:54:01;;;;;;;46.90;26.30;;;;;;;6.83;100.00;101250.41;5012848;28;20114;-84
2022/06/01 03:56:27;;;;;;;42.22;24.88;;;;;;;6.83;100.00;101245.06;5013141;28;20461;-84
2022/06/01 03:58:53;;;;;;;44.67;25.47;;;;;;;6.80;100.00;101241.00;5012157;28;20106;-83
2022/06/01 04:01:19;;;;;;;50.03;25.92;;;;;;;6.83;100.00;101242.41;5011897;28;20088;-87
2022/06/01 04:03:45;;;;;;;50.23;25.57;;;;;;;6.90;100.00;101247.66;5011194;28;20010;-86
2022/06/01 04:06:11;;;;;;;53.30;26.83;;;;;;;6.88;100.00;101245.19;5011429;28;20065;-87
2022/06/01 04:08:36;;;;;;;50.15;25.90;;;;;;;6.97;100.00;101243.06;5008670;28;20112;-86
2022/06/01 04:11:01;;;;;;;52.07;25.87;;;;;;;7.04;100.00;101251.78;5004971;28;20041;-85
2022/06/01 04:13:28;;;;;;;44.53;24.87;;;;;;;7.01;100.00;101248.78;5007503;28;20030;-85
2022/06/01 04:15:53;;;;;;;42.97;24.15;;;;;;;7.04;100.00;101250.97;5009973;28;20033;-84
2022/06/01 04:18:19;;;;;;;46.63;26.10;;;;;;;7.08;100.00;101249.47;5012412;28;20042;-85
2022/06/01 04:20:46;;;;;;;43.40;23.73;;;;;;;7.11;100.00;101255.19;5010950;28;20444;-84
2022/06/01 04:23:11;;;;;;;45.00;23.10;;;;;;;7.07;100.00;101254.00;5011217;28;20776;-84
2022/06/01 04:25:37;;;;;;;38.72;22.45;;;;;;;7.05;100.00;101257.91;5012057;28;20036;-85
2022/06/01 04:28:03;;;;;;;39.87;21.53;;;;;;;6.98;100.00;101250.00;5012353;28;20069;-84
2022/06/01 04:30:28;;;;;;;42.22;21.85;;;;;;;7.00;100.00;101255.94;5012199;28;20036;-84
2022/06/01 04:32:57;;;;;;;44.30;22.33;;;;;;;7.02;100.00;101256.53;5012073;28;20110;-84
2022/06/01 04:35:25;;;;;;;40.42;22.88;;;;;;;7.06;100.00;101257.72;5011542;28;20036;-84
2022/06/01 04:37:51;;;;;;;42.85;23.25;;;;;;;7.09;100.00;101256.44;5007148;28;20017;-85
2022/06/01 04:40:18;;;;;;;46.17;24.38;;;;;;;7.16;100.00;101262.53;5009027;28;20390;-85
2022/06/01 04:42:43;;;;;;;43.80;23.70;;;;;;;7.23;100.00;101265.09;5010457;28;20606;-84
2022/06/01 04:45:12;;;;;;;45.93;24.43;;;;;;;7.37;100.00;101257.75;5028187;28;20029;-85
2022/06/01 04:47:37;;;;;;;45.95;24.35;;;;;;;7.50;100.00;101270.06;5030906;28;20029;-84
2022/06/01 04:50:07;;;;;;;57.17;26.85;;;;;;;7.78;100.00;101260.66;5031109;28;20083;-84
2022/06/01 04:52:32;;;;;;;51.35;28.35;;;;;;;8.86;100.00;101262.34;5020184;28;20034;-84
2022/06/01 04:54:58;;;;;;;45.27;28.30;;;;;;;10.02;100.00;101259.66;5010533;28;20028;-84
2022/06/01 04:57:23;;;;;;;44.43;26.80;;;;;;;11.19;100.00;101273.09;5031039;28;20508;-85
2022/06/01 04:59:48;;;;;;;34.80;23.92;;;;;;;11.45;100.00;101267.97;5030172;28;20401;-85
2022/06/01 05:02:14;;;;;;;31.20;17.77;;;;;;;10.99;100.00;101270.16;5031065;28;20104;-85
2022/06/01 05:04:45;;;;;;;27.70;16.37;;;;;;;10.34;100.00;101277.81;5025322;28;20028;-87
2022/06/01 05:07:10;;;;;;;21.08;15.18;;;;;;;10.00;100.00;101273.28;5009436;28;20370;-85
2022/06/01 05:09:35;;;;;;;28.77;17.40;;;;;;;10.50;100.00;101271.63;4997709;28;20033;-85
2022/06/01 05:12:02;;;;;;;31.45;17.33;;;;;;;11.45;100.00;101272.53;4999727;28;20055;-86
2022/06/01 05:14:27;;;;;;;24.87;16.13;;;;;;;12.35;98.98;101268.50;5002519;28;20032;-85
2022/06/01 05:16:57;;;;;;;21.48;14.75;;;;;;;13.07;95.77;101276.91;5008209;28;20765;-85
2022/06/01 05:19:22;;;;;;;24.85;14.10;;;;;;;13.66;92.12;101269.56;5002653;28;20417;-85
2022/06/01 05:21:48;;;;;;;21.60;12.43;;;;;;;14.13;88.86;101277.66;5009828;28;20052;-84
2022/06/01 05:24:13;;;;;;;20.50;11.73;;;;;;;14.51;85.34;101278.94;5006162;28;20061;-83
2022/06/01 05:26:38;;;;;;;15.33;10.80;;;;;;;14.90;84.95;101288.28;5006688;28;20076;-84
2022/06/01 05:29:04;;;;;;;21.55;10.70;;;;;;;15.15;82.20;101275.78;5010921;28;20052;-82
2022/06/01 05:31:29;;;;;;;16.43;10.80;;;;;;;15.43;82.88;101286.97;4989357;28;20447;-83
2022/06/01 05:33:54;;;;;;;20.03;10.70;;;;;;;15.78;81.04;101276.19;4989352;28;20038;-83
2022/06/01 05:36:20;;;;;;;22.33;9.23;;;;;;;16.01;79.31;101280.88;4991558;28;20524;-83
2022/06/01 05:38:56;;;;;;;12.40;8.90;;;;;;;15.94;79.37;101280.44;4989205;28;20025;-84
2022/06/01 05:41:21;;;;;;;15.43;9.50;;;;;;;15.98;79.97;101277.94;4991484;28;20034;-84
2022/06/01 05:43:59;;;;;;;15.77;9.77;;;;;;;16.01;78.98;101290.91;4990608;28;20573;-85
2022/06/01 05:46:24;;;;;;;12.80;9.60;;;;;;;16.04;80.31;101293.06;4988650;28;20030;-85
2022/06/01 05:48:52;;;;;;;12.18;9.70;;;;;;;16.12;79.53;101286.22;4988101;28;20037;-84
2022/06/01 05:51:19;;;;;;;15.03;9.23;;;;;;;16.03;78.03;101289.53;4990026;28;20057;-85
2022/06/01 05:53:50;;;;;;;14.40;9.20;;;;;;;15.86;77.77;101291.81;4972050;28;20329;-84
2022/06/01 05:56:15;;;;;;;17.60;9.65;;;;;;;15.48;80.28;101289.63;5003426;28;20022;-85
2022/06/01 05:58:41;;;;;;;12.97;9.10;;;;;;;15.14;81.85;101293.06;5006791;28;20542;-85
2022/06/01 06:01:07;;;;;;;13.60;9.00;;;;;;;14.63;82.64;101297.50;5006456;28;20288;-85
2022/06/01 06:03:34;;;;;;;15.93;8.90;;;;;;;13.97;83.01;101293.81;5006039;28;20116;-85
2022/06/01 06:06:17;;;;;;;15.80;9.90;;;;;;;13.56;89.38;101278.44;5033553;22;20315;-85
2022/06/01 06:08:45;;;;;;;12.95;9.70;;;;;;;13.63;89.70;101297.03;5025153;28;20025;-85
2022/06/01 06:11:12;;;;;;;14.43;10.20;;;;;;;13.61;91.84;101293.78;5027306;28;20124;-85
2022/06/01 06:13:38;;;;;;;16.65;10.40;;;;;;;13.61;91.56;101294.56;5028751;28;20045;-84
2022/06/01 06:16:04;;;;;;;14.85;9.82;;;;;;;13.53;91.50;101286.22;5015559;28;20494;-85
2022/06/01 06:18:30;;;;;;;15.20;9.73;;;;;;;13.44;91.09;101307.47;5007145;28;20109;-84
2022/06/01 06:20:55;;;;;;;19.77;10.83;;;;;;;13.41;93.55;101294.56;5008604;28;20717;-85
2022/06/01 06:23:23;;;;;;;15.93;9.93;;;;;;;13.33;91.36;101299.34;5009754;28;20477;-86
2022/06/01 06:25:48;;;;;;;15.15;10.05;;;;;;;13.33;92.64;101296.66;5007366;28;20470;-86
2022/06/01 06:28:14;;;;;;;20.47;10.83;;;;;;;13.31;94.39;101298.00;5008782;28;20033;-86
2022/06/01 06:30:40;;;;;;;17.48;9.95;;;;;;;13.24;93.75;101305.50;5007560;28;20026;-84
2022/06/01 06:33:07;;;;;;;17.67;9.15;;;;;;;13.06;92.44;101304.91;5001404;28;20105;-83
2022/06/01 06:35:33;;;;;;;15.52;9.55;;;;;;;13.13;94.87;101315.41;5039552;22;20057;-84
2022/06/01 06:37:58;;;;;;;16.10;9.83;;;;;;;13.18;96.32;101323.50;5022104;28;20026;-84
2022/06/01 06:40:24;;;;;;;13.23;8.90;;;;;;;13.10;94.57;101327.53;5027326;28;20300;-83
2022/06/01 06:42:59;;;;;;;13.48;9.43;;;;;;;13.09;94.66;101331.28;5027153;28;20040;-83
2022/06/01 06:45:37;;;;;;;12.80;9.32;;;;;;;13.06;97.01;101309.44;5161081;22;20116;-84
2022/06/01 06:48:03;;;;;;;14.65;9.40;;;;;;;13.09;96.09;101312.44;4988355;28;20045;-84
2022/06/01 06:50:51;;;;;;;13.57;8.70;;;;;;;13.29;96.16;101335.13;4975445;28;20026;-84
2022/06/01 06:53:25;;;;;;;13.35;8.57;;;;;;;13.16;94.99;101304.94;4963813;28;20395;-84
2022/06/01 06:55:51;;;;;;;16.95;8.65;;;;;;;13.43;94.99;101341.66;4983249;28;20708;-84
2022/06/01 06:58:17;;;;;;;18.37;8.80;;;;;;;13.46;94.53;101333.06;4988452;28;20146;-84
2022/06/01 07:00:42;;;;;;;13.88;7.93;;;;;;;13.37;92.71;101329.22;4984236;28;20034;-84
2022/06/01 07:03:07;;;;;;;11.70;8.57;;;;;;;13.37;92.15;101345.38;4987587;28;20038;-84
2022/06/01 07:08:18;;;;;;;14.98;8.85;;;;;;;13.38;92.29;101347.00;5028722;28;20474;-84
2022/06/01 07:10:44;;;;;;;13.93;8.70;;;;;;;13.44;93.33;101339.75;5024955;28;20014;-85
2022/06/01 07:13:10;;;;;;;15.38;8.43;;;;;;;13.62;94.40;101354.63;5012300;28;20033;-83
2022/06/01 07:15:37;;;;;;;15.37;8.90;;;;;;;13.86;95.43;101359.53;5032612;28;20030;-83
2022/06/01 07:18:03;;;;;;;15.93;9.00;;;;;;;13.99;93.33;101352.81;5021675;28;20844;-83
2022/06/01 07:20:29;;;;;;;13.10;8.55;;;;;;;13.88;90.41;101350.13;5017137;28;20048;-84
2022/06/01 07:22:56;;;;;;;12.65;7.80;;;;;;;13.91;89.53;101362.22;5020016;28;20080;-84
2022/06/01 07:25:21;;;;;;;13.05;7.85;;;;;;;13.96;90.25;101348.78;5024373;22;20047;-83
2022/06/01 07:27:48;;;;;;;10.03;7.43;;;;;;;14.14;89.76;101352.84;4984588;28;20038;-83
2022/06/01 07:30:15;;;;;;;9.65;8.05;;;;;;;14.28;89.58;101350.41;4982640;28;20054;-84
2022/06/01 07:32:44;;;;;;;14.27;7.60;;;;;;;14.41;88.65;101351.75;5002919;22;20076;-85
2022/06/01 07:35:09;;;;;;;13.25;7.75;;;;;;;14.46;89.64;101359.00;5079437;22;20041;-84
2022/06/01 07:43:10;;;;;;;12.27;6.25;;;;;;;14.39;83.83;101368.22;5017033;28;20088;-84
2022/06/01 07:45:40;;;;;;;7.80;6.28;;;;;;;14.74;85.32;101362.25;5022065;28;20022;-84
2022/06/01 07:48:07;;;;;;;11.23;6.80;;;;;;;15.32;84.04;101352.91;5001165;28;20469;-84
2022/06/01 07:50:34;;;;;;;12.10;7.15;;;;;;;15.69;81.19;101357.84;5010137;28;20038;-84
2022/06/01 07:53:01;;;;;;;8.30;5.65;;;;;;;15.83;80.59;101355.31;5011177;28;20428;-84
2022/06/01 07:55:27;;;;;;;11.33;5.90;;;;;;;16.17;77.92;101359.97;5008620;28;20052;-85
2022/06/01 07:57:52;;;;;;;10.20;5.37;;;;;;;16.28;77.13;101363.41;5210902;22;20312;-84
2022/06/01 08:00:18;;;;;;;7.05;5.03;;;;;;;16.37;74.70;101363.59;5030698;28;20041;-84
2022/06/01 08:02:44;;;;;;;9.80;4.97;;;;;;;16.49;75.38;101361.31;5030411;28;20116;-83
2022/06/01 08:05:13;;;;;;;10.13;4.10;;;;;;;16.35;74.67;101369.28;5023393;28;20097;-82
2022/06/01 08:07:39;;;;;;;7.03;3.45;;;;;;;16.29;72.07;101359.59;5011930;28;20045;-85
2022/06/01 08:10:22;;;;;;;5.60;3.10;;;;;;;16.60;74.18;101378.25;5012297;28;20030;-84
2022/06/01 08:13:06;;;;;;;4.22;3.40;;;;;;;16.46;72.72;101371.91;5009458;28;20053;-84
2022/06/01 08:18:08;;;;;;;4.32;3.70;;;;;;;16.30;72.01;101380.16;5123010;22;20049;-85
2022/06/01 08:20:34;;;;;;;5.20;3.90;;;;;;;16.20;71.50;101372.94;5031489;28;20039;-84
2022/06/01 08:23:00;;;;;;;5.17;3.73;;;;;;;15.98;71.33;101367.13;5030414;28;20112;-85
2022/06/01 08:25:27;;;;;;;5.80;4.22;;;;;;;15.64;72.96;101368.66;5019822;28;20046;-86
2022/06/01 08:27:54;;;;;;;6.72;4.40;;;;;;;15.63;72.31;101374.34;5009239;28;20321;-85
2022/06/01 08:30:24;;;;;;;6.13;4.97;;;;;;;15.50;72.19;101370.34;5011047;28;20069;-84
2022/06/01 08:32:50;;;;;;;9.87;4.90;;;;;;;15.73;72.07;101366.19;5011148;28;20300;-85
2022/06/01 08:35:35;;;;;;;7.22;4.30;;;;;;;15.99;73.77;101364.16;5034086;22;20145;-85
2022/06/01 08:38:01;;;;;;;5.28;4.43;;;;;;;16.18;69.14;101356.19;5029235;28;20477;-81
2022/06/01 08:40:31;;;;;;;5.22;3.78;;;;;;;16.41;68.83;101359.25;5010580;28;20065;-83
2022/06/01 08:43:13;;;;;;;4.20;3.63;;;;;;;16.74;68.36;101362.16;5032419;28;20027;-82
2022/06/01 08:45:55;;;;;;;4.93;3.22;;;;;;;16.71;66.65;101354.63;5120445;22;20116;-81
2022/06/01 08:48:50;;;;;;;4.13;3.45;;;;;;;16.73;64.46;101335.38;5031264;28;20512;-83
2022/06/01 08:51:23;;;;;;;8.18;3.58;;;;;;;17.07;65.33;101362.38;5019716;28;20064;-83
2022/06/01 08:53:48;;;;;;;3.17;2.80;;;;;;;17.53;61.37;101368.28;5030238;28;20079;-83
2022/06/01 08:56:17;;;;;;;6.87;3.20;;;;;;;17.82;60.57;101357.31;5030930;22;20319;-83
2022/06/01 08:58:47;;;;;;;5.43;3.20;;;;;;;17.94;61.56;101370.41;5024581;28;20167;-82
2022/06/01 09:01:19;;;;;;;4.05;3.00;;;;;;;18.06;64.16;101371.91;5022471;28;20049;-82
2022/06/01 09:04:19;;;;;;;3.90;3.22;;;;;;;18.20;64.73;101370.06;5031000;28;20052;-82
2022/06/01 09:06:51;;;;;;;4.53;3.17;;;;;;;18.38;61.29;101384.66;5006808;28;20817;-82
2022/06/01 09:09:24;;;;;;;6.47;3.80;;;;;;;18.83;57.96;101384.13;5010912;28;20408;-83
2022/06/01 09:11:49;;;;;;;6.97;3.50;;;;;;;19.25;56.07;101372.50;5010544;28;20057;-83
2022/06/01 09:14:23;;;;;;;5.45;3.10;;;;;;;19.29;57.00;101370.81;5008823;28;20061;-83
2022/06/01 09:16:57;;;;;;;3.80;2.80;;;;;;;19.59;54.64;101379.38;5010026;28;20026;-83
2022/06/01 09:22:37;;;;;;;4.85;3.10;;;;;;;20.48;54.69;101373.50;4997179;28;20092;-85
2022/06/01 09:25:10;;;;;;;5.00;2.90;;;;;;;20.51;51.60;101370.16;5009699;28;20030;-83
2022/06/01 09:27:45;;;;;;;4.53;2.92;;;;;;;20.27;51.24;101365.84;5009079;28;20030;-84
2022/06/01 09:30:31;;;;;;;6.45;2.72;;;;;;;20.19;52.53;101366.63;5008024;28;20033;-83
2022/06/01 09:33:21;;;;;;;3.75;2.90;;;;;;;20.32;58.15;101371.19;4991501;28;20032;-83
2022/06/01 09:36:06;;;;;;;4.50;3.10;;;;;;;20.28;54.23;101386.50;5007375;28;20041;-83
2022/06/01 09:38:37;;;;;;;3.95;2.80;;;;;;;20.03;52.34;101398.81;4995635;28;20046;-83
2022/06/01 09:41:06;;;;;;;2.80;2.60;;;;;;;19.30;52.72;101396.84;5008575;28;20042;-83
2022/06/01 09:43:32;;;;;;;5.20;3.03;;;;;;;18.11;52.96;101390.81;5010538;28;20319;-83
2022/06/01 09:45:57;;;;;;;4.18;2.70;;;;;;;17.22;57.51;101387.66;5010921;28;20026;-83
2022/06/01 09:48:43;;;;;;;5.53;2.90;;;;;;;16.68;60.42;101389.56;5010009;28;20045;-83
2022/06/01 09:51:21;;;;;;;6.10;3.00;;;;;;;16.13;59.93;101391.34;5009201;28;20040;-83
2022/06/01 09:53:53;;;;;;;4.68;2.90;;;;;;;15.86;62.14;101381.00;5005128;28;20031;-84
2022/06/01 09:56:30;;;;;;;7.95;2.78;;;;;;;15.68;64.01;101390.53;5031184;28;20022;-84
2022/06/01 10:07:45;;;;;;;2.78;2.58;;;;;;;15.44;64.61;101396.59;5010598;28;20041;-84
2022/06/01 10:10:26;;;;;;;2.47;2.20;;;;;;;15.15;65.25;101378.34;5008010;28;20038;-85
2022/06/01 10:12:58;;;;;;;3.03;2.37;;;;;;;14.73;68.45;101401.91;4990418;28;20449;-84
2022/06/01 10:15:51;;;;;;;5.30;2.40;;;;;;;14.18;72.04;101426.66;5200094;22;20304;-85
2022/06/01 10:18:32;;;;;;;3.42;2.83;;;;;;;13.44;76.90;101428.59;5029372;28;20485;-85
2022/06/01 10:21:03;;;;;;;5.15;3.40;;;;;;;12.67;85.40;101423.53;5023669;28;20017;-84
2022/06/01 10:24:06;;;;;;;18.05;5.60;;;;;;;12.23;88.27;101449.50;5015176;28;20033;-85
2022/06/01 10:27:10;;;;;;;16.02;6.20;;;;;;;11.76;93.24;101421.31;5078060;22;20030;-86
2022/06/01 10:29:42;;;;;;;11.60;5.72;;;;;;;11.08;97.16;101428.75;5026658;28;20107;-84
2022/06/01 10:32:12;;;;;;;9.05;6.45;;;;;;;10.75;98.37;101442.75;5025692;28;20473;-83
2022/06/01 10:34:43;;;;;;;14.77;6.97;;;;;;;10.52;100.00;101437.53;5028994;28;20030;-83
2022/06/01 10:37:17;;;;;;;7.40;6.22;;;;;;;10.35;100.00;101429.44;5013275;28;20168;-83
2022/06/01 10:39:57;;;;;;;6.43;5.33;;;;;;;10.26;100.00;101421.00;5013538;28;20029;-83
2022/06/01 10:43:22;;;;;;;6.33;4.33;;;;;;;10.32;100.00;101425.38;5013777;28;20315;-83
2022/06/01 10:45:23;;;;;;;6.50;3.97;;;;;;;10.63;100.00;101412.53;4989527;28;20129;-83
2022/06/01 10:48:20;;;;;;;6.75;4.72;;;;;;;11.00;100.00;101427.31;5011228;28;20037;-82
2022/06/01 10:51:13;;;;;;;6.22;5.57;;;;;;;11.49;100.00;101423.94;5002319;28;20136;-83
2022/06/01 10:53:45;;;;;;;7.70;6.90;;;;;;;12.32;100.00;101425.69;5005197;28;20033;-82
2022/06/01 10:56:13;;;;;;;9.15;8.13;;;;;;;13.00;100.00;101435.06;5012102;28;20904;-80
2022/06/01 10:58:38;;;;;;;11.27;10.10;;;;;;;13.76;100.00;101439.25;5012623;28;20080;-80
2022/06/01 11:01:22;;;;;;;14.77;12.27;;;;;;;14.35;100.00;101437.22;5012983;28;20424;-80
2022/06/01 11:03:58;;;;;;;12.45;9.80;;;;;;;14.82;100.00;101435.34;5013306;28;20105;-80
2022/06/01 11:06:51;;;;;;;9.35;8.35;;;;;;;15.14;100.00;101436.91;5013467;28;20037;-80
2022/06/01 11:09:56;;;;;;;8.75;7.80;;;;;;;15.48;100.00;101440.03;5010516;28;20034;-80
2022/06/01 11:15:23;;;;;;;5.85;5.28;;;;;;;15.29;95.01;101436.06;5070579;22;20049;-81
2022/06/01 11:18:03;;;;;;;6.47;5.72;;;;;;;15.14;100.00;101430.72;5012276;28;20033;-81
2022/06/01 11:20:37;;;;;;;8.27;5.87;;;;;;;15.26;100.00;101431.22;5012581;28;20033;-81
2022/06/01 11:23:19;;;;;;;7.77;6.97;;;;;;;15.40;100.00;101427.91;4994032;28;20316;-81
2022/06/01 11:25:53;;;;;;;8.40;6.40;;;;;;;15.19;100.00;101424.50;5011941;28;20063;-81
2022/06/01 11:28:46;;;;;;;9.02;5.82;;;;;;;15.17;100.00;101438.25;5009110;28;20065;-81
2022/06/01 11:31:20;;;;;;;6.68;5.90;;;;;;;15.38;100.00;101440.88;5010714;28;20041;-81
2022/06/01 11:33:57;;;;;;;6.65;5.38;;;;;;;15.70;97.42;101435.09;5011663;28;20615;-81
2022/06/01 11:36:32;;;;;;;6.43;4.60;;;;;;;15.95;90.53;101444.19;5137974;22;20096;-81
2022/06/01 11:39:25;;;;;;;4.82;4.32;;;;;;;16.07;90.88;101456.56;5012915;28;20044;-81
2022/06/01 11:58:11;;;;;;;2.55;2.35;;;;;;;16.50;78.36;101449.47;5209201;22;20076;-81
2022/06/01 12:00:48;;;;;;;4.57;1.90;;;;;;;16.42;79.55;101444.69;5051497;28;20052;-81
2022/06/01 12:03:32;;;;;;;3.05;2.28;;;;;;;16.48;77.00;101443.53;5043579;28;20069;-82
2022/06/01 12:09:16;;;;;;;2.55;2.17;;;;;;;16.84;74.66;101439.72;5262385;22;20053;-82
2022/06/01 12:30:50;;;;;;;5.88;2.95;;;;;;;17.02;70.68;101440.13;5067672;22;20045;-84
2022/06/01 12:33:15;;;;;;;2.72;2.50;;;;;;;16.82;70.34;101447.34;5025510;28;20026;-83
2022/06/01 12:39:07;;;;;;;1.85;1.75;;;;;;;17.00;72.50;101407.91;5029778;28;20049;-83
2022/06/01 12:48:36;;;;;;;3.65;1.30;;;;;;;18.12;64.21;101452.06;4931974;29;20519;-83
2022/06/01 12:58:36;;;;;;;1.85;1.40;;;;;;;18.16;67.24;101413.25;4933333;29;20065;-82
2022/06/01 13:01:32;;;;;;;1.38;1.27;;;;;;;18.32;62.52;101432.00;4933310;29;20034;-83